createdAt,value
2023-03-06T00:01:10.062Z,19.58
2023-03-06T00:03:37.333Z,14.20
2023-03-06T00:06:04.780Z,16.95
2023-03-06T00:08:31.985Z,15.13
2023-03-06T00:10:59.817Z,13.90
2023-03-06T00:13:30.214Z,11.73
2023-03-06T00:16:02.969Z,12.30
2023-03-06T00:18:30.213Z,17.25
2023-03-06T00:20:57.497Z,14.73
2023-03-06T00:23:24.829Z,12.27
2023-03-06T00:25:52.432Z,13.68
2023-03-06T00:28:19.704Z,8.90
2023-03-06T00:30:47.606Z,17.17
2023-03-06T00:33:14.763Z,14.43
2023-03-06T00:35:42.680Z,12.93
2023-03-06T00:38:13.060Z,16.30
2023-03-06T00:40:42.763Z,14.00
2023-03-06T00:43:10.354Z,18.00
2023-03-06T00:45:37.877Z,20.58
2023-03-06T00:48:05.905Z,17.98
2023-03-06T00:50:33.318Z,16.40
2023-03-06T00:53:00.438Z,18.50
2023-03-06T00:55:29.457Z,23.98
2023-03-06T00:57:56.762Z,22.58
2023-03-06T01:00:24.565Z,21.95
2023-03-06T01:02:53.755Z,22.25
2023-03-06T01:05:21.195Z,24.52
2023-03-06T01:07:48.350Z,23.35
2023-03-06T01:10:15.561Z,25.33
2023-03-06T01:12:42.747Z,26.58
2023-03-06T01:15:13.296Z,26.17
2023-03-06T01:17:40.536Z,22.17
2023-03-06T01:20:08.633Z,23.95
2023-03-06T01:22:35.797Z,19.92
2023-03-06T01:25:03.737Z,23.42
2023-03-06T01:27:30.898Z,21.13
2023-03-06T01:29:58.150Z,24.05
2023-03-06T01:32:25.558Z,24.00
2023-03-06T01:34:52.800Z,23.67
2023-03-06T01:37:19.982Z,20.52
2023-03-06T01:39:47.280Z,20.73
2023-03-06T01:42:14.730Z,27.88
2023-03-06T01:45:12.868Z,33.05
2023-03-06T01:47:40.224Z,24.42
2023-03-06T01:50:13.180Z,27.40
2023-03-06T01:52:52.587Z,25.30
2023-03-06T01:55:31.116Z,24.98
2023-03-06T01:58:03.605Z,29.80
2023-03-06T02:00:31.497Z,22.50
2023-03-06T02:03:09.463Z,26.10
2023-03-06T02:05:37.899Z,33.88
2023-03-06T02:08:08.091Z,29.08
2023-03-06T02:10:35.536Z,31.25
2023-03-06T02:13:03.480Z,32.70
2023-03-06T02:15:31.274Z,42.58
2023-03-06T02:18:00.705Z,27.83
2023-03-06T02:20:46.238Z,32.80
2023-03-06T02:23:40.588Z,27.92
2023-03-06T02:26:09.508Z,35.42
2023-03-06T02:28:36.796Z,38.58
2023-03-06T02:31:04.392Z,27.85
2023-03-06T02:36:02.497Z,35.50
2023-03-06T02:38:55.610Z,30.95
2023-03-06T02:41:22.688Z,30.63
2023-03-06T02:43:52.903Z,32.38
2023-03-06T02:46:20.073Z,35.13
2023-03-06T02:48:47.581Z,29.08
2023-03-06T02:51:14.839Z,29.85
2023-03-06T02:53:42.215Z,27.30
2023-03-06T02:56:09.461Z,32.85
2023-03-06T02:58:36.676Z,36.03
2023-03-06T03:01:04.592Z,29.27
2023-03-06T03:03:33.308Z,36.03
2023-03-06T03:06:01.356Z,33.20
2023-03-06T03:08:28.770Z,31.73
2023-03-06T03:10:57.221Z,34.08
2023-03-06T03:13:24.856Z,33.45
2023-03-06T03:16:07.340Z,32.88
2023-03-06T03:18:35.605Z,32.97
2023-03-06T03:21:10.571Z,37.08
2023-03-06T03:23:37.774Z,36.03
2023-03-06T03:26:18.796Z,39.60
2023-03-06T03:28:46.063Z,28.90
2023-03-06T03:31:14.183Z,29.58
2023-03-06T03:33:41.873Z,29.88
2023-03-06T03:36:09.918Z,28.65
2023-03-06T03:38:37.127Z,26.95
2023-03-06T03:41:05.410Z,28.77
2023-03-06T03:43:32.649Z,33.08
2023-03-06T03:45:59.740Z,32.33
2023-03-06T03:48:26.979Z,30.67
2023-03-06T03:50:54.093Z,29.25
2023-03-06T03:53:21.159Z,29.42
2023-03-06T03:55:49.527Z,29.52
2023-03-06T03:58:17.046Z,27.92
2023-03-06T04:00:44.224Z,38.97
2023-03-06T04:03:11.354Z,32.05
2023-03-06T04:05:38.455Z,23.63
2023-03-06T04:08:05.904Z,34.83
2023-03-06T04:10:34.456Z,28.23
2023-03-06T04:13:01.619Z,29.65
2023-03-06T04:15:28.780Z,30.08
2023-03-06T04:17:55.891Z,29.27
2023-03-06T04:20:23.045Z,33.30
2023-03-06T04:22:50.248Z,30.83
2023-03-06T04:25:17.447Z,32.85
2023-03-06T04:27:44.553Z,27.52
2023-03-06T04:30:12.771Z,30.40
2023-03-06T04:32:39.923Z,25.30
2023-03-06T04:35:07.393Z,33.70
2023-03-06T04:37:34.587Z,30.83
2023-03-06T04:40:01.763Z,27.50
2023-03-06T04:42:29.443Z,31.92
2023-03-06T04:44:56.566Z,33.70
2023-03-06T04:47:23.702Z,23.88
2023-03-06T04:49:51.191Z,30.33
2023-03-06T04:52:18.295Z,26.05
2023-03-06T04:54:46.182Z,24.45
2023-03-06T04:57:14.342Z,33.53
2023-03-06T04:59:41.706Z,28.42
2023-03-06T05:02:09.292Z,22.50
2023-03-06T05:07:03.587Z,20.08
2023-03-06T05:09:30.702Z,24.25
2023-03-06T05:11:57.786Z,21.67
2023-03-06T05:14:25.043Z,28.27
2023-03-06T05:16:52.157Z,20.98
2023-03-06T05:19:19.265Z,20.63
2023-03-06T05:21:46.440Z,21.50
2023-03-06T05:24:13.580Z,23.05
2023-03-06T05:26:40.713Z,27.42
2023-03-06T05:29:07.860Z,23.70
2023-03-06T05:31:35.026Z,21.27
2023-03-06T05:34:02.245Z,23.70
2023-03-06T05:36:29.386Z,22.05
2023-03-06T05:38:56.459Z,19.80
2023-03-06T05:41:23.610Z,17.80
2023-03-06T05:43:53.122Z,21.85
2023-03-06T05:46:20.536Z,24.48
2023-03-06T05:48:47.977Z,19.83
2023-03-06T05:51:15.415Z,23.75
2023-03-06T05:53:42.476Z,25.73
2023-03-06T05:56:29.396Z,21.00
2023-03-06T05:58:56.498Z,19.42
2023-03-06T06:01:25.488Z,24.38
2023-03-06T06:03:52.783Z,21.52
2023-03-06T06:06:19.881Z,23.52
2023-03-06T06:08:47.113Z,28.00
2023-03-06T06:18:41.370Z,25.80
2023-03-06T06:21:14.538Z,34.83
2023-03-06T06:23:42.429Z,24.75
2023-03-06T06:26:13.604Z,28.02
2023-03-06T06:28:40.796Z,33.95
2023-03-06T06:31:13.452Z,24.33
2023-03-06T06:33:42.006Z,26.52
2023-03-06T06:36:20.944Z,28.83
2023-03-06T06:38:49.239Z,24.20
2023-03-06T06:41:42.273Z,27.05
2023-03-06T06:44:10.121Z,29.90
2023-03-06T06:47:20.639Z,44.58
2023-03-06T06:49:25.137Z,21.55
2023-03-06T06:51:52.221Z,31.77
2023-03-06T06:54:20.268Z,31.50
2023-03-06T06:56:47.636Z,22.75
2023-03-06T06:59:17.245Z,38.15
2023-03-06T07:01:45.612Z,39.08
2023-03-06T07:04:17.283Z,43.85
2023-03-06T07:06:47.211Z,42.35
2023-03-06T07:09:24.314Z,33.25
2023-03-06T07:11:58.469Z,24.67
2023-03-06T07:14:31.562Z,23.23
2023-03-06T07:17:01.746Z,30.75
2023-03-06T07:19:29.821Z,17.77
2023-03-06T07:22:01.918Z,20.23
2023-03-06T07:24:31.119Z,20.80
2023-03-06T07:27:01.502Z,14.93
2023-03-06T07:29:31.065Z,10.75
2023-03-06T07:32:02.273Z,15.77
2023-03-06T07:34:36.352Z,12.98
2023-03-06T07:37:07.614Z,7.93
2023-03-06T07:39:44.329Z,9.38
2023-03-06T07:42:15.890Z,12.20
2023-03-06T07:44:49.124Z,12.68
2023-03-06T07:47:17.831Z,12.18
2023-03-06T07:49:45.306Z,12.50
2023-03-06T07:52:15.473Z,10.00
2023-03-06T07:54:46.370Z,14.82
2023-03-06T07:57:14.255Z,11.57
2023-03-06T07:59:43.698Z,8.82
2023-03-06T08:02:12.888Z,9.13
2023-03-06T08:04:40.165Z,11.20
2023-03-06T08:07:07.391Z,7.10
2023-03-06T08:09:36.019Z,12.85
2023-03-06T08:12:03.224Z,12.98
2023-03-06T08:14:30.343Z,9.88
2023-03-06T08:16:57.609Z,12.38
2023-03-06T08:19:27.119Z,7.88
2023-03-06T08:21:58.723Z,9.38
2023-03-06T08:24:25.861Z,8.85
2023-03-06T08:26:52.953Z,6.90
2023-03-06T08:29:20.169Z,7.47
2023-03-06T08:31:57.561Z,9.82
2023-03-06T08:34:30.928Z,11.63
2023-03-06T08:37:04.501Z,15.00
2023-03-06T08:39:39.597Z,21.38
2023-03-06T08:42:09.493Z,19.88
2023-03-06T08:44:38.434Z,14.20
2023-03-06T08:47:06.453Z,18.08
2023-03-06T08:49:36.614Z,15.18
2023-03-06T08:52:09.758Z,8.52
2023-03-06T08:57:25.755Z,5.90
2023-03-06T08:59:56.426Z,11.88
2023-03-06T09:02:27.465Z,7.28
2023-03-06T09:04:54.877Z,8.10
2023-03-06T09:07:22.311Z,12.10
2023-03-06T09:09:56.053Z,7.68
2023-03-06T09:12:25.666Z,9.20
2023-03-06T09:14:53.852Z,10.70
2023-03-06T09:17:21.208Z,8.45
2023-03-06T09:19:48.391Z,12.82
2023-03-06T09:22:15.539Z,10.35
2023-03-06T09:24:42.765Z,11.30
2023-03-06T09:27:17.350Z,5.53
2023-03-06T09:29:54.063Z,6.63
2023-03-06T09:32:24.712Z,8.23
2023-03-06T09:34:53.728Z,11.27
2023-03-06T09:37:21.163Z,8.52
2023-03-06T09:39:48.476Z,7.68
2023-03-06T09:42:23.719Z,10.48
2023-03-06T09:44:59.158Z,6.32
2023-03-06T09:47:41.185Z,8.85
2023-03-06T09:56:31.732Z,15.20
2023-03-06T09:59:17.837Z,21.52
2023-03-06T10:02:15.460Z,21.70
2023-03-06T10:04:50.485Z,10.40
2023-03-06T10:07:56.051Z,6.32
2023-03-06T10:11:06.354Z,19.05
2023-03-06T10:13:50.588Z,18.10
2023-03-06T10:16:33.413Z,12.23
2023-03-06T10:19:14.078Z,12.88
2023-03-06T10:23:14.828Z,15.93
2023-03-06T10:26:00.949Z,6.82
2023-03-06T10:29:06.129Z,11.52
2023-03-06T10:37:24.075Z,6.75
2023-03-06T10:58:24.927Z,6.70
2023-03-06T11:01:22.456Z,3.92
2023-03-06T11:03:52.267Z,4.50
2023-03-06T11:45:40.669Z,5.47
2023-03-06T11:48:16.215Z,5.18
2023-03-06T11:50:50.816Z,5.40
2023-03-06T11:53:34.347Z,6.65
2023-03-06T11:59:25.613Z,6.15
2023-03-06T12:02:28.900Z,7.03
2023-03-06T12:05:41.128Z,4.65
2023-03-06T12:08:36.135Z,5.93
2023-03-06T12:17:54.082Z,7.30
2023-03-06T12:20:58.792Z,7.72
2023-03-06T12:24:08.674Z,4.07
2023-03-06T12:27:45.996Z,4.82
2023-03-06T12:30:21.879Z,2.95
2023-03-06T12:39:01.361Z,3.78
2023-03-06T13:03:30.351Z,5.03
2023-03-06T13:07:00.653Z,6.72
2023-03-06T13:09:42.150Z,6.30
2023-03-06T13:12:22.751Z,6.20
